Flight Briefing for CPX204

Departure Arrival
Li├Ęge Airport (EBLG)
Click to view FAA NOTAMS
Washington Dulles International Airport (KIAD)
Click to view FAA NOTAMS
Departure Time Arrival Time
1130 UTC 2000 UTC
Aircraft Distance
B767-300BDSF 3422nm
Departure METAR Arrival METAR
EBLG 230620Z 16007KT 140V210 CAVOK 13/06 Q1019 NOSIG KIAD 230552Z 17004KT 10SM FEW100 BKN250 16/09 A3020 RMK AO2 SLP226 T01610094 10194 20156 58012
Suggested Route





View recent IFR Routes data
Notes



Charts and Procedures

Charts for EBLG
No chart available
Charts for KIAD
No chart available

Windy.com Weather Map